Houlton International Airport Houlton US
ICAO: KHUL
IATA: HUL
Category: Medium
Scheduled Services: No

Elevation: 489 ft
TransAlt. 18000 ft.

Airport Communications:
ASOS:132.025
BOSTON CNTR:120.25
BANGOR RDO:122.2
CTAF/UNICOM:122.8

KHUL Zoom In..

Runways:

(A) RW 01 length 2700 ft width 60 ft
---- / hdg 10

(B) RW 05 length 5015 ft width 100 ft
---- / hdg 49

(C) RW 19 length 2700 ft width 60 ft
---- / hdg 190

(D) RW 23 length 5015 ft width 100 ft
---- / hdg 229

Location; KHUL
Day. 26 / Time. 13.08 Zulu
* Altimeter: 29.67
* Temperature: 16° c. 60.8°f.
* Wind from: 010° Speed 10 kn.
Dewpoint: 14° c.
Visibility: 10 Statute Miles.
Clouds: Overcast 800 ft.

KHUL 261308Z AUTO 01010KT 10SM OVC008 16/14 A2967 RMK AO2 CIG 006V013 T01560144


Wind From 010°
Speed 10 kn.

 
 
jpsmedia.com for Web Design SOUNDCLOUD worldairports.se 2018   terms of use